Terminal Aerodrome Forecast
Issued by NWS

Home | Current Version | Previous Version | Text Only | Print | Product List | Glossary On
Versions: 1 2 3 4 5 6 7 8 9 10 11 12 13 14 15 16 17 18 19 20
670
FTUS46 KMTR 061733
TAFOAK
TAF
KOAK 061733Z 0618/0724 33003KT P6SM BKN200 BKN250
     FM062000 28008KT P6SM FEW050 SCT200
     FM070400 28005KT P6SM SCT150
     FM070700 06004KT P6SM BKN150
     FM071700 10007KT P6SM BKN100=

USA.gov is the U.S. government's official web portal to all federal, state and local government web resources and services.